sensor_id;sensor_type;location;lat;lon;timestamp;temperature;humidity
3380;DHT22;1703;51.964;7.642;2023-02-19T00:01:18;10.40;99.90
3380;DHT22;1703;51.964;7.642;2023-02-19T00:03:48;10.40;99.90
3380;DHT22;1703;51.964;7.642;2023-02-19T00:06:17;10.30;99.90
3380;DHT22;1703;51.964;7.642;2023-02-19T00:08:44;10.40;99.90
3380;DHT22;1703;51.964;7.642;2023-02-19T00:11:14;10.40;99.90
3380;DHT22;1703;51.964;7.642;2023-02-19T00:13:42;10.40;99.90
3380;DHT22;1703;51.964;7.642;2023-02-19T00:16:12;10.40;99.90
3380;DHT22;1703;51.964;7.642;2023-02-19T00:18:39;10.40;99.90
3380;DHT22;1703;51.964;7.642;2023-02-19T00:21:07;10.40;99.90
3380;DHT22;1703;51.964;7.642;2023-02-19T00:23:34;10.50;99.90
3380;DHT22;1703;51.964;7.642;2023-02-19T00:26:02;10.50;99.90
3380;DHT22;1703;51.964;7.642;2023-02-19T00:28:30;10.40;99.90
3380;DHT22;1703;51.964;7.642;2023-02-19T00:31:03;10.50;99.90
3380;DHT22;1703;51.964;7.642;2023-02-19T00:33:30;10.50;99.90
3380;DHT22;1703;51.964;7.642;2023-02-19T00:35:59;10.50;99.90
3380;DHT22;1703;51.964;7.642;2023-02-19T00:38:26;10.40;99.90
3380;DHT22;1703;51.964;7.642;2023-02-19T00:40:53;10.50;99.90
3380;DHT22;1703;51.964;7.642;2023-02-19T00:43:21;10.50;99.90
3380;DHT22;1703;51.964;7.642;2023-02-19T00:45:49;10.50;99.90
3380;DHT22;1703;51.964;7.642;2023-02-19T00:48:16;10.60;99.90
3380;DHT22;1703;51.964;7.642;2023-02-19T00:50:43;10.60;99.90
3380;DHT22;1703;51.964;7.642;2023-02-19T00:53:10;10.60;99.90
3380;DHT22;1703;51.964;7.642;2023-02-19T00:55:37;10.60;99.90
3380;DHT22;1703;51.964;7.642;2023-02-19T00:58:04;10.70;99.90
3380;DHT22;1703;51.964;7.642;2023-02-19T01:00:30;10.70;99.90
3380;DHT22;1703;51.964;7.642;2023-02-19T01:02:59;10.60;99.90
3380;DHT22;1703;51.964;7.642;2023-02-19T01:05:26;10.60;99.90
3380;DHT22;1703;51.964;7.642;2023-02-19T01:07:53;10.60;99.90
3380;DHT22;1703;51.964;7.642;2023-02-19T01:10:19;10.60;99.90
3380;DHT22;1703;51.964;7.642;2023-02-19T01:12:46;10.60;99.90
3380;DHT22;1703;51.964;7.642;2023-02-19T01:15:13;10.70;99.90
3380;DHT22;1703;51.964;7.642;2023-02-19T01:17:40;10.70;99.90
3380;DHT22;1703;51.964;7.642;2023-02-19T01:20:09;10.70;99.90
3380;DHT22;1703;51.964;7.642;2023-02-19T01:22:35;10.70;99.90
3380;DHT22;1703;51.964;7.642;2023-02-19T01:25:05;10.70;99.90
3380;DHT22;1703;51.964;7.642;2023-02-19T01:27:32;10.60;99.90
3380;DHT22;1703;51.964;7.642;2023-02-19T01:29:59;10.70;99.90
3380;DHT22;1703;51.964;7.642;2023-02-19T01:32:26;10.70;99.90
3380;DHT22;1703;51.964;7.642;2023-02-19T01:34:52;10.70;99.90
3380;DHT22;1703;51.964;7.642;2023-02-19T01:37:20;10.70;99.90
3380;DHT22;1703;51.964;7.642;2023-02-19T01:39:47;10.70;99.90
3380;DHT22;1703;51.964;7.642;2023-02-19T01:42:15;10.80;99.90
3380;DHT22;1703;51.964;7.642;2023-02-19T01:45:14;10.80;99.90
3380;DHT22;1703;51.964;7.642;2023-02-19T01:47:43;10.80;99.90
3380;DHT22;1703;51.964;7.642;2023-02-19T01:50:10;10.80;99.90
3380;DHT22;1703;51.964;7.642;2023-02-19T01:52:38;10.70;99.90
3380;DHT22;1703;51.964;7.642;2023-02-19T01:55:06;10.70;99.90
3380;DHT22;1703;51.964;7.642;2023-02-19T01:57:38;10.70;99.90
3380;DHT22;1703;51.964;7.642;2023-02-19T02:00:09;10.70;99.90
3380;DHT22;1703;51.964;7.642;2023-02-19T02:02:41;10.80;99.90
3380;DHT22;1703;51.964;7.642;2023-02-19T02:05:13;10.80;99.90
3380;DHT22;1703;51.964;7.642;2023-02-19T02:07:43;10.80;99.90
3380;DHT22;1703;51.964;7.642;2023-02-19T02:10:28;10.70;99.90
3380;DHT22;1703;51.964;7.642;2023-02-19T02:12:56;10.70;99.90
3380;DHT22;1703;51.964;7.642;2023-02-19T02:15:28;10.70;99.90
3380;DHT22;1703;51.964;7.642;2023-02-19T02:18:05;10.70;99.90
3380;DHT22;1703;51.964;7.642;2023-02-19T02:20:47;10.60;99.90
3380;DHT22;1703;51.964;7.642;2023-02-19T02:23:24;10.60;99.90
3380;DHT22;1703;51.964;7.642;2023-02-19T02:25:58;10.60;99.90
3380;DHT22;1703;51.964;7.642;2023-02-19T02:31:33;10.70;99.90
3380;DHT22;1703;51.964;7.642;2023-02-19T02:34:03;10.60;99.90
3380;DHT22;1703;51.964;7.642;2023-02-19T02:36:33;10.70;99.90
3380;DHT22;1703;51.964;7.642;2023-02-19T02:39:04;10.60;99.90
3380;DHT22;1703;51.964;7.642;2023-02-19T02:41:55;10.60;99.90
3380;DHT22;1703;51.964;7.642;2023-02-19T02:44:37;10.60;99.90
3380;DHT22;1703;51.964;7.642;2023-02-19T02:47:06;10.50;99.90
3380;DHT22;1703;51.964;7.642;2023-02-19T02:49:55;10.50;99.90
3380;DHT22;1703;51.964;7.642;2023-02-19T02:52:32;10.50;99.90
3380;DHT22;1703;51.964;7.642;2023-02-19T02:55:20;10.50;99.90
3380;DHT22;1703;51.964;7.642;2023-02-19T02:57:47;10.40;99.90
3380;DHT22;1703;51.964;7.642;2023-02-19T03:00:14;10.40;99.90
3380;DHT22;1703;51.964;7.642;2023-02-19T03:02:43;10.40;99.90
3380;DHT22;1703;51.964;7.642;2023-02-19T03:05:11;10.40;99.90
3380;DHT22;1703;51.964;7.642;2023-02-19T03:07:59;10.40;99.90
3380;DHT22;1703;51.964;7.642;2023-02-19T03:10:34;10.40;99.90
3380;DHT22;1703;51.964;7.642;2023-02-19T03:13:02;10.40;99.90
3380;DHT22;1703;51.964;7.642;2023-02-19T03:15:53;10.30;99.90
3380;DHT22;1703;51.964;7.642;2023-02-19T03:18:42;10.30;99.90
3380;DHT22;1703;51.964;7.642;2023-02-19T03:21:28;10.30;99.90
3380;DHT22;1703;51.964;7.642;2023-02-19T03:23:56;10.40;99.90
3380;DHT22;1703;51.964;7.642;2023-02-19T03:26:50;10.40;99.90
3380;DHT22;1703;51.964;7.642;2023-02-19T03:29:21;10.40;99.90
3380;DHT22;1703;51.964;7.642;2023-02-19T03:31:52;10.40;99.90
3380;DHT22;1703;51.964;7.642;2023-02-19T03:34:25;10.50;99.90
3380;DHT22;1703;51.964;7.642;2023-02-19T03:36:57;10.50;99.90
3380;DHT22;1703;51.964;7.642;2023-02-19T03:39:26;10.50;99.90
3380;DHT22;1703;51.964;7.642;2023-02-19T03:41:57;10.50;99.90
3380;DHT22;1703;51.964;7.642;2023-02-19T03:44:33;10.60;99.90
3380;DHT22;1703;51.964;7.642;2023-02-19T03:47:06;10.60;99.90
3380;DHT22;1703;51.964;7.642;2023-02-19T03:49:41;10.50;99.90
3380;DHT22;1703;51.964;7.642;2023-02-19T03:52:14;10.60;99.90
3380;DHT22;1703;51.964;7.642;2023-02-19T03:54:47;10.60;99.90
3380;DHT22;1703;51.964;7.642;2023-02-19T03:57:20;10.50;99.90
3380;DHT22;1703;51.964;7.642;2023-02-19T03:59:51;10.60;99.90
3380;DHT22;1703;51.964;7.642;2023-02-19T04:02:27;10.50;99.90
3380;DHT22;1703;51.964;7.642;2023-02-19T04:05:01;10.50;99.90
3380;DHT22;1703;51.964;7.642;2023-02-19T04:07:32;10.40;99.90
3380;DHT22;1703;51.964;7.642;2023-02-19T04:10:00;10.30;99.90
3380;DHT22;1703;51.964;7.642;2023-02-19T04:12:28;10.40;99.90
3380;DHT22;1703;51.964;7.642;2023-02-19T04:14:59;10.40;99.90
3380;DHT22;1703;51.964;7.642;2023-02-19T04:17:32;10.40;99.90
3380;DHT22;1703;51.964;7.642;2023-02-19T04:20:05;10.50;99.90
3380;DHT22;1703;51.964;7.642;2023-02-19T04:22:34;10.40;99.90
3380;DHT22;1703;51.964;7.642;2023-02-19T04:25:01;10.50;99.90
3380;DHT22;1703;51.964;7.642;2023-02-19T04:27:28;10.60;99.90
3380;DHT22;1703;51.964;7.642;2023-02-19T04:29:55;10.60;99.90
3380;DHT22;1703;51.964;7.642;2023-02-19T04:32:22;10.60;99.90
3380;DHT22;1703;51.964;7.642;2023-02-19T04:34:49;10.50;99.90
3380;DHT22;1703;51.964;7.642;2023-02-19T04:37:17;10.50;99.90
3380;DHT22;1703;51.964;7.642;2023-02-19T04:39:43;10.50;99.90
3380;DHT22;1703;51.964;7.642;2023-02-19T04:42:10;10.50;99.90
3380;DHT22;1703;51.964;7.642;2023-02-19T04:44:37;10.50;99.90
3380;DHT22;1703;51.964;7.642;2023-02-19T04:47:04;10.50;99.90
3380;DHT22;1703;51.964;7.642;2023-02-19T04:49:31;10.50;99.90
3380;DHT22;1703;51.964;7.642;2023-02-19T04:51:57;10.40;99.90
3380;DHT22;1703;51.964;7.642;2023-02-19T04:54:25;10.40;99.90
3380;DHT22;1703;51.964;7.642;2023-02-19T04:56:52;10.40;99.90
3380;DHT22;1703;51.964;7.642;2023-02-19T04:59:19;10.40;99.90
3380;DHT22;1703;51.964;7.642;2023-02-19T05:01:46;10.50;99.90
3380;DHT22;1703;51.964;7.642;2023-02-19T05:04:13;10.50;99.90
3380;DHT22;1703;51.964;7.642;2023-02-19T05:06:39;10.60;99.90
3380;DHT22;1703;51.964;7.642;2023-02-19T05:09:06;10.50;99.90
3380;DHT22;1703;51.964;7.642;2023-02-19T05:11:34;10.50;99.90
3380;DHT22;1703;51.964;7.642;2023-02-19T05:14:01;10.40;99.90
3380;DHT22;1703;51.964;7.642;2023-02-19T05:16:28;10.40;99.90
3380;DHT22;1703;51.964;7.642;2023-02-19T05:18:55;10.40;99.90
3380;DHT22;1703;51.964;7.642;2023-02-19T05:21:21;10.40;99.90
3380;DHT22;1703;51.964;7.642;2023-02-19T05:23:48;10.40;99.90
3380;DHT22;1703;51.964;7.642;2023-02-19T05:26:17;10.50;99.90
3380;DHT22;1703;51.964;7.642;2023-02-19T05:28:46;10.40;99.90
3380;DHT22;1703;51.964;7.642;2023-02-19T05:31:13;10.40;99.90
3380;DHT22;1703;51.964;7.642;2023-02-19T05:33:40;10.40;99.90
3380;DHT22;1703;51.964;7.642;2023-02-19T05:36:11;10.50;99.90
3380;DHT22;1703;51.964;7.642;2023-02-19T05:38:38;10.60;99.90
3380;DHT22;1703;51.964;7.642;2023-02-19T05:41:10;10.60;99.90
3380;DHT22;1703;51.964;7.642;2023-02-19T05:43:37;10.60;99.90
3380;DHT22;1703;51.964;7.642;2023-02-19T05:46:06;10.60;99.90
3380;DHT22;1703;51.964;7.642;2023-02-19T05:48:33;10.60;99.90
3380;DHT22;1703;51.964;7.642;2023-02-19T05:51:01;10.60;99.90
3380;DHT22;1703;51.964;7.642;2023-02-19T05:53:28;10.50;99.90
3380;DHT22;1703;51.964;7.642;2023-02-19T05:55:55;10.50;99.90
3380;DHT22;1703;51.964;7.642;2023-02-19T05:58:22;10.50;99.90
3380;DHT22;1703;51.964;7.642;2023-02-19T06:00:49;10.50;99.90
3380;DHT22;1703;51.964;7.642;2023-02-19T06:03:17;10.50;99.90
3380;DHT22;1703;51.964;7.642;2023-02-19T06:05:44;10.50;99.90
3380;DHT22;1703;51.964;7.642;2023-02-19T06:08:12;10.50;99.90
3380;DHT22;1703;51.964;7.642;2023-02-19T06:10:39;10.50;99.90
3380;DHT22;1703;51.964;7.642;2023-02-19T06:13:07;10.50;99.90
3380;DHT22;1703;51.964;7.642;2023-02-19T06:15:34;10.40;99.90
3380;DHT22;1703;51.964;7.642;2023-02-19T06:18:01;10.40;99.90
3380;DHT22;1703;51.964;7.642;2023-02-19T06:20:29;10.40;99.90
3380;DHT22;1703;51.964;7.642;2023-02-19T06:22:57;10.30;99.90
3380;DHT22;1703;51.964;7.642;2023-02-19T06:25:24;10.40;99.90
3380;DHT22;1703;51.964;7.642;2023-02-19T06:27:51;10.30;99.90
3380;DHT22;1703;51.964;7.642;2023-02-19T06:30:18;10.30;99.90
3380;DHT22;1703;51.964;7.642;2023-02-19T06:32:44;10.30;99.90
3380;DHT22;1703;51.964;7.642;2023-02-19T06:35:11;10.40;99.90
3380;DHT22;1703;51.964;7.642;2023-02-19T06:37:39;10.40;99.90
3380;DHT22;1703;51.964;7.642;2023-02-19T06:40:07;10.50;99.90
3380;DHT22;1703;51.964;7.642;2023-02-19T06:42:34;10.50;99.90
3380;DHT22;1703;51.964;7.642;2023-02-19T06:45:01;10.50;99.90
3380;DHT22;1703;51.964;7.642;2023-02-19T06:47:30;10.40;99.90
3380;DHT22;1703;51.964;7.642;2023-02-19T06:49:56;10.40;99.90
3380;DHT22;1703;51.964;7.642;2023-02-19T06:52:23;10.40;99.90
3380;DHT22;1703;51.964;7.642;2023-02-19T06:54:52;10.50;99.90
3380;DHT22;1703;51.964;7.642;2023-02-19T06:57:18;10.50;99.90
3380;DHT22;1703;51.964;7.642;2023-02-19T06:59:45;10.50;99.90
3380;DHT22;1703;51.964;7.642;2023-02-19T07:02:12;10.50;99.90
3380;DHT22;1703;51.964;7.642;2023-02-19T07:04:39;10.50;99.90
3380;DHT22;1703;51.964;7.642;2023-02-19T07:07:09;10.50;99.90
3380;DHT22;1703;51.964;7.642;2023-02-19T07:09:36;10.50;99.90
3380;DHT22;1703;51.964;7.642;2023-02-19T07:12:05;10.60;99.90
3380;DHT22;1703;51.964;7.642;2023-02-19T07:14:32;10.60;99.90
3380;DHT22;1703;51.964;7.642;2023-02-19T07:16:59;10.60;99.90
3380;DHT22;1703;51.964;7.642;2023-02-19T07:19:25;10.50;99.90
3380;DHT22;1703;51.964;7.642;2023-02-19T07:21:52;10.60;99.90
3380;DHT22;1703;51.964;7.642;2023-02-19T07:24:19;10.50;99.90
3380;DHT22;1703;51.964;7.642;2023-02-19T07:26:46;10.50;99.90
3380;DHT22;1703;51.964;7.642;2023-02-19T07:29:15;10.50;99.90
3380;DHT22;1703;51.964;7.642;2023-02-19T07:31:42;10.50;99.90
3380;DHT22;1703;51.964;7.642;2023-02-19T07:34:09;10.50;99.90
3380;DHT22;1703;51.964;7.642;2023-02-19T07:36:35;10.50;99.90
3380;DHT22;1703;51.964;7.642;2023-02-19T07:39:03;10.50;99.90
3380;DHT22;1703;51.964;7.642;2023-02-19T07:41:30;10.50;99.90
3380;DHT22;1703;51.964;7.642;2023-02-19T07:43:57;10.50;99.90
3380;DHT22;1703;51.964;7.642;2023-02-19T07:46:26;10.60;99.90
3380;DHT22;1703;51.964;7.642;2023-02-19T07:48:53;10.60;99.90
3380;DHT22;1703;51.964;7.642;2023-02-19T07:51:20;10.60;99.90
3380;DHT22;1703;51.964;7.642;2023-02-19T07:53:47;10.60;99.90
3380;DHT22;1703;51.964;7.642;2023-02-19T07:56:15;10.40;99.90
3380;DHT22;1703;51.964;7.642;2023-02-19T07:58:42;10.50;99.90
3380;DHT22;1703;51.964;7.642;2023-02-19T08:01:13;10.60;99.90
3380;DHT22;1703;51.964;7.642;2023-02-19T08:03:43;10.50;99.90
3380;DHT22;1703;51.964;7.642;2023-02-19T08:06:09;10.50;99.90
3380;DHT22;1703;51.964;7.642;2023-02-19T08:08:36;10.40;99.90
3380;DHT22;1703;51.964;7.642;2023-02-19T08:11:04;10.30;99.90
3380;DHT22;1703;51.964;7.642;2023-02-19T08:13:50;10.20;99.90
3380;DHT22;1703;51.964;7.642;2023-02-19T08:16:18;10.00;99.90
3380;DHT22;1703;51.964;7.642;2023-02-19T08:18:47;10.00;99.90
3380;DHT22;1703;51.964;7.642;2023-02-19T08:21:14;9.90;99.90
3380;DHT22;1703;51.964;7.642;2023-02-19T08:23:42;9.80;99.90
3380;DHT22;1703;51.964;7.642;2023-02-19T08:26:11;9.60;99.90
3380;DHT22;1703;51.964;7.642;2023-02-19T08:28:37;9.50;99.90
3380;DHT22;1703;51.964;7.642;2023-02-19T08:31:06;9.60;99.90
3380;DHT22;1703;51.964;7.642;2023-02-19T08:33:33;9.60;99.90
3380;DHT22;1703;51.964;7.642;2023-02-19T08:36:04;9.60;99.90
3380;DHT22;1703;51.964;7.642;2023-02-19T08:38:32;9.60;99.90
3380;DHT22;1703;51.964;7.642;2023-02-19T08:41:03;9.60;99.90
3380;DHT22;1703;51.964;7.642;2023-02-19T08:43:30;9.60;99.90
3380;DHT22;1703;51.964;7.642;2023-02-19T08:45:56;9.50;99.90
3380;DHT22;1703;51.964;7.642;2023-02-19T08:48:23;9.50;99.90
3380;DHT22;1703;51.964;7.642;2023-02-19T08:50:54;9.60;99.90
3380;DHT22;1703;51.964;7.642;2023-02-19T08:53:24;9.70;99.90
3380;DHT22;1703;51.964;7.642;2023-02-19T08:55:51;9.60;99.90
3380;DHT22;1703;51.964;7.642;2023-02-19T08:58:18;9.70;99.90
3380;DHT22;1703;51.964;7.642;2023-02-19T09:00:45;9.70;99.90
3380;DHT22;1703;51.964;7.642;2023-02-19T09:03:12;9.70;99.90
3380;DHT22;1703;51.964;7.642;2023-02-19T09:05:39;9.70;99.90
3380;DHT22;1703;51.964;7.642;2023-02-19T09:08:06;9.60;99.90
3380;DHT22;1703;51.964;7.642;2023-02-19T09:10:34;9.60;99.90
3380;DHT22;1703;51.964;7.642;2023-02-19T09:16:26;9.50;99.90
3380;DHT22;1703;51.964;7.642;2023-02-19T09:19:06;9.40;99.90
3380;DHT22;1703;51.964;7.642;2023-02-19T09:21:40;9.30;99.90
3380;DHT22;1703;51.964;7.642;2023-02-19T09:24:08;9.30;99.90
3380;DHT22;1703;51.964;7.642;2023-02-19T09:26:36;9.40;99.90
3380;DHT22;1703;51.964;7.642;2023-02-19T09:29:03;9.40;99.90
3380;DHT22;1703;51.964;7.642;2023-02-19T09:31:29;9.50;99.90
3380;DHT22;1703;51.964;7.642;2023-02-19T09:33:59;9.40;99.90
3380;DHT22;1703;51.964;7.642;2023-02-19T09:36:26;9.40;99.90
3380;DHT22;1703;51.964;7.642;2023-02-19T09:38:53;9.50;99.90
3380;DHT22;1703;51.964;7.642;2023-02-19T09:41:25;9.50;99.90
3380;DHT22;1703;51.964;7.642;2023-02-19T09:43:56;9.50;99.90
3380;DHT22;1703;51.964;7.642;2023-02-19T09:46:27;9.40;99.90
3380;DHT22;1703;51.964;7.642;2023-02-19T09:49:00;9.60;99.90
3380;DHT22;1703;51.964;7.642;2023-02-19T09:51:30;9.70;99.90
3380;DHT22;1703;51.964;7.642;2023-02-19T09:53:57;9.70;99.90
3380;DHT22;1703;51.964;7.642;2023-02-19T09:56:25;9.50;99.90
3380;DHT22;1703;51.964;7.642;2023-02-19T09:58:53;9.50;99.90
3380;DHT22;1703;51.964;7.642;2023-02-19T10:01:24;9.50;99.90
3380;DHT22;1703;51.964;7.642;2023-02-19T10:03:52;9.60;99.90
3380;DHT22;1703;51.964;7.642;2023-02-19T10:06:21;9.70;99.90
3380;DHT22;1703;51.964;7.642;2023-02-19T10:08:51;9.70;99.90
3380;DHT22;1703;51.964;7.642;2023-02-19T10:11:18;9.70;99.90
3380;DHT22;1703;51.964;7.642;2023-02-19T10:13:47;9.80;99.90
3380;DHT22;1703;51.964;7.642;2023-02-19T10:16:18;9.80;99.90
3380;DHT22;1703;51.964;7.642;2023-02-19T10:18:47;9.80;99.90
3380;DHT22;1703;51.964;7.642;2023-02-19T10:21:19;9.90;99.90
3380;DHT22;1703;51.964;7.642;2023-02-19T10:23:50;10.00;99.90
3380;DHT22;1703;51.964;7.642;2023-02-19T10:26:19;10.00;99.90
3380;DHT22;1703;51.964;7.642;2023-02-19T10:28:47;9.80;99.90
3380;DHT22;1703;51.964;7.642;2023-02-19T10:31:16;9.80;99.90
3380;DHT22;1703;51.964;7.642;2023-02-19T10:33:50;9.90;99.90
3380;DHT22;1703;51.964;7.642;2023-02-19T10:36:24;9.90;99.90
3380;DHT22;1703;51.964;7.642;2023-02-19T10:38:52;10.00;99.90
3380;DHT22;1703;51.964;7.642;2023-02-19T10:41:21;10.10;99.90
3380;DHT22;1703;51.964;7.642;2023-02-19T10:43:52;10.00;99.90
3380;DHT22;1703;51.964;7.642;2023-02-19T10:46:22;9.90;99.90
3380;DHT22;1703;51.964;7.642;2023-02-19T10:48:53;10.00;99.90
3380;DHT22;1703;51.964;7.642;2023-02-19T10:51:24;10.00;99.90
3380;DHT22;1703;51.964;7.642;2023-02-19T10:54:04;9.90;99.90
3380;DHT22;1703;51.964;7.642;2023-02-19T10:56:31;9.90;99.90
3380;DHT22;1703;51.964;7.642;2023-02-19T10:59:14;9.90;99.90
3380;DHT22;1703;51.964;7.642;2023-02-19T11:01:52;10.10;99.90
3380;DHT22;1703;51.964;7.642;2023-02-19T11:04:21;9.90;99.90
3380;DHT22;1703;51.964;7.642;2023-02-19T11:06:49;10.00;99.90
3380;DHT22;1703;51.964;7.642;2023-02-19T11:09:24;10.00;99.90
3380;DHT22;1703;51.964;7.642;2023-02-19T11:11:52;10.00;99.90
3380;DHT22;1703;51.964;7.642;2023-02-19T11:14:22;9.90;99.90
3380;DHT22;1703;51.964;7.642;2023-02-19T11:16:51;10.00;99.90
3380;DHT22;1703;51.964;7.642;2023-02-19T11:19:33;10.00;99.90
3380;DHT22;1703;51.964;7.642;2023-02-19T11:22:02;10.00;99.90
3380;DHT22;1703;51.964;7.642;2023-02-19T11:24:47;10.10;99.90
3380;DHT22;1703;51.964;7.642;2023-02-19T11:27:17;10.00;99.90
3380;DHT22;1703;51.964;7.642;2023-02-19T11:29:45;10.00;99.90
3380;DHT22;1703;51.964;7.642;2023-02-19T11:32:24;9.90;99.90
3380;DHT22;1703;51.964;7.642;2023-02-19T11:35:16;10.10;99.90
3380;DHT22;1703;51.964;7.642;2023-02-19T11:37:54;10.10;99.90
3380;DHT22;1703;51.964;7.642;2023-02-19T11:40:28;10.20;99.90
3380;DHT22;1703;51.964;7.642;2023-02-19T11:43:02;10.30;99.90
3380;DHT22;1703;51.964;7.642;2023-02-19T11:45:37;10.10;99.90
3380;DHT22;1703;51.964;7.642;2023-02-19T11:48:26;10.10;99.90
3380;DHT22;1703;51.964;7.642;2023-02-19T11:51:09;10.30;99.90
3380;DHT22;1703;51.964;7.642;2023-02-19T11:53:44;10.20;99.90
3380;DHT22;1703;51.964;7.642;2023-02-19T11:56:15;10.40;99.90
3380;DHT22;1703;51.964;7.642;2023-02-19T11:58:54;10.50;99.90
3380;DHT22;1703;51.964;7.642;2023-02-19T12:01:29;10.60;99.90
3380;DHT22;1703;51.964;7.642;2023-02-19T12:06:54;10.50;99.90
3380;DHT22;1703;51.964;7.642;2023-02-19T12:09:33;10.50;99.90
3380;DHT22;1703;51.964;7.642;2023-02-19T12:12:26;10.60;99.90
3380;DHT22;1703;51.964;7.642;2023-02-19T12:15:08;10.70;99.90
3380;DHT22;1703;51.964;7.642;2023-02-19T12:17:51;10.80;99.90
3380;DHT22;1703;51.964;7.642;2023-02-19T12:20:25;11.00;99.90
3380;DHT22;1703;51.964;7.642;2023-02-19T12:23:07;11.10;99.90
3380;DHT22;1703;51.964;7.642;2023-02-19T12:25:45;11.10;99.90
3380;DHT22;1703;51.964;7.642;2023-02-19T12:28:27;11.10;99.90
3380;DHT22;1703;51.964;7.642;2023-02-19T12:37:11;11.10;99.90
3380;DHT22;1703;51.964;7.642;2023-02-19T12:39:46;11.10;99.90
3380;DHT22;1703;51.964;7.642;2023-02-19T12:42:31;11.00;99.90
3380;DHT22;1703;51.964;7.642;2023-02-19T12:45:05;11.10;99.90
3380;DHT22;1703;51.964;7.642;2023-02-19T12:47:38;10.90;99.90
3380;DHT22;1703;51.964;7.642;2023-02-19T12:50:15;10.70;99.90
3380;DHT22;1703;51.964;7.642;2023-02-19T12:52:44;10.60;99.90
3380;DHT22;1703;51.964;7.642;2023-02-19T12:55:20;10.70;99.90
3380;DHT22;1703;51.964;7.642;2023-02-19T12:57:50;10.60;99.90
3380;DHT22;1703;51.964;7.642;2023-02-19T13:00:27;10.60;99.90
3380;DHT22;1703;51.964;7.642;2023-02-19T13:02:59;10.60;99.90
3380;DHT22;1703;51.964;7.642;2023-02-19T13:05:37;10.50;99.90
3380;DHT22;1703;51.964;7.642;2023-02-19T13:08:12;10.60;99.90
3380;DHT22;1703;51.964;7.642;2023-02-19T13:10:43;10.80;99.90
3380;DHT22;1703;51.964;7.642;2023-02-19T13:13:17;10.80;99.90
3380;DHT22;1703;51.964;7.642;2023-02-19T13:15:48;10.70;99.90
3380;DHT22;1703;51.964;7.642;2023-02-19T13:18:19;10.60;99.90
3380;DHT22;1703;51.964;7.642;2023-02-19T13:20:47;10.50;99.90
3380;DHT22;1703;51.964;7.642;2023-02-19T13:23:19;10.60;99.90
3380;DHT22;1703;51.964;7.642;2023-02-19T13:26:18;10.60;99.90
3380;DHT22;1703;51.964;7.642;2023-02-19T13:29:05;10.80;99.90
3380;DHT22;1703;51.964;7.642;2023-02-19T13:31:46;10.70;99.90
3380;DHT22;1703;51.964;7.642;2023-02-19T13:34:29;10.60;99.90
3380;DHT22;1703;51.964;7.642;2023-02-19T13:36:58;10.40;99.90
3380;DHT22;1703;51.964;7.642;2023-02-19T13:39:25;10.40;99.90
3380;DHT22;1703;51.964;7.642;2023-02-19T13:41:55;10.40;99.90
3380;DHT22;1703;51.964;7.642;2023-02-19T13:44:25;10.50;99.90
3380;DHT22;1703;51.964;7.642;2023-02-19T13:50:23;10.60;99.90
3380;DHT22;1703;51.964;7.642;2023-02-19T13:56:00;10.60;99.90
3380;DHT22;1703;51.964;7.642;2023-02-19T13:58:58;10.70;99.90
3380;DHT22;1703;51.964;7.642;2023-02-19T14:04:51;10.40;99.90
3380;DHT22;1703;51.964;7.642;2023-02-19T14:10:02;10.40;99.90
3380;DHT22;1703;51.964;7.642;2023-02-19T14:12:35;10.40;99.90
3380;DHT22;1703;51.964;7.642;2023-02-19T14:18:19;10.40;99.90
3380;DHT22;1703;51.964;7.642;2023-02-19T14:21:06;10.30;99.90
3380;DHT22;1703;51.964;7.642;2023-02-19T14:23:39;10.30;99.90
3380;DHT22;1703;51.964;7.642;2023-02-19T14:26:07;10.30;99.90
3380;DHT22;1703;51.964;7.642;2023-02-19T14:28:36;10.30;99.90
3380;DHT22;1703;51.964;7.642;2023-02-19T14:31:14;10.10;99.90
3380;DHT22;1703;51.964;7.642;2023-02-19T14:33:44;10.10;99.90
3380;DHT22;1703;51.964;7.642;2023-02-19T14:36:24;10.00;99.90
3380;DHT22;1703;51.964;7.642;2023-02-19T14:38:55;10.00;99.90
3380;DHT22;1703;51.964;7.642;2023-02-19T14:41:23;10.00;99.90
3380;DHT22;1703;51.964;7.642;2023-02-19T14:43:52;10.00;99.90
3380;DHT22;1703;51.964;7.642;2023-02-19T14:46:26;10.10;99.90
3380;DHT22;1703;51.964;7.642;2023-02-19T14:48:58;10.10;99.90
3380;DHT22;1703;51.964;7.642;2023-02-19T14:51:31;10.10;99.90
3380;DHT22;1703;51.964;7.642;2023-02-19T14:54:03;10.10;99.90
3380;DHT22;1703;51.964;7.642;2023-02-19T14:56:35;10.20;99.90
3380;DHT22;1703;51.964;7.642;2023-02-19T14:59:08;10.10;99.90
3380;DHT22;1703;51.964;7.642;2023-02-19T15:01:35;10.00;99.90
3380;DHT22;1703;51.964;7.642;2023-02-19T15:04:02;10.10;99.90
3380;DHT22;1703;51.964;7.642;2023-02-19T15:06:30;10.00;99.90
3380;DHT22;1703;51.964;7.642;2023-02-19T15:09:02;9.90;99.90
3380;DHT22;1703;51.964;7.642;2023-02-19T15:11:30;9.90;99.90
3380;DHT22;1703;51.964;7.642;2023-02-19T15:13:59;9.80;99.90
3380;DHT22;1703;51.964;7.642;2023-02-19T15:16:28;9.80;99.90
3380;DHT22;1703;51.964;7.642;2023-02-19T15:18:57;9.80;99.90
3380;DHT22;1703;51.964;7.642;2023-02-19T15:21:27;9.80;99.90
3380;DHT22;1703;51.964;7.642;2023-02-19T15:23:58;9.80;99.90
3380;DHT22;1703;51.964;7.642;2023-02-19T15:26:32;9.80;99.90
3380;DHT22;1703;51.964;7.642;2023-02-19T15:29:01;9.80;99.90
3380;DHT22;1703;51.964;7.642;2023-02-19T15:31:28;9.80;99.90
3380;DHT22;1703;51.964;7.642;2023-02-19T15:33:55;9.80;99.90
3380;DHT22;1703;51.964;7.642;2023-02-19T15:36:25;9.70;99.90
3380;DHT22;1703;51.964;7.642;2023-02-19T15:38:56;9.80;99.90
3380;DHT22;1703;51.964;7.642;2023-02-19T15:41:26;9.80;99.90
3380;DHT22;1703;51.964;7.642;2023-02-19T15:44:00;9.70;99.90
3380;DHT22;1703;51.964;7.642;2023-02-19T15:46:32;9.70;99.90
3380;DHT22;1703;51.964;7.642;2023-02-19T15:49:03;9.60;99.90
3380;DHT22;1703;51.964;7.642;2023-02-19T15:51:35;9.70;99.90
3380;DHT22;1703;51.964;7.642;2023-02-19T15:54:14;9.80;99.90
3380;DHT22;1703;51.964;7.642;2023-02-19T15:56:46;9.70;99.90
3380;DHT22;1703;51.964;7.642;2023-02-19T15:59:20;9.50;99.90
3380;DHT22;1703;51.964;7.642;2023-02-19T16:01:48;9.50;99.90
3380;DHT22;1703;51.964;7.642;2023-02-19T16:04:16;9.50;99.90
3380;DHT22;1703;51.964;7.642;2023-02-19T16:06:54;9.50;99.90
3380;DHT22;1703;51.964;7.642;2023-02-19T16:09:27;9.50;99.90
3380;DHT22;1703;51.964;7.642;2023-02-19T16:11:56;9.50;99.90
3380;DHT22;1703;51.964;7.642;2023-02-19T16:14:28;9.50;99.90
3380;DHT22;1703;51.964;7.642;2023-02-19T16:16:57;9.60;99.90
3380;DHT22;1703;51.964;7.642;2023-02-19T16:19:26;9.60;99.90
3380;DHT22;1703;51.964;7.642;2023-02-19T16:21:53;9.60;99.90
3380;DHT22;1703;51.964;7.642;2023-02-19T16:24:27;9.70;99.90
3380;DHT22;1703;51.964;7.642;2023-02-19T16:26:56;9.70;99.90
3380;DHT22;1703;51.964;7.642;2023-02-19T16:29:26;9.70;99.90
3380;DHT22;1703;51.964;7.642;2023-02-19T16:31:55;9.70;99.90
3380;DHT22;1703;51.964;7.642;2023-02-19T16:34:33;9.70;99.90
3380;DHT22;1703;51.964;7.642;2023-02-19T16:37:32;9.70;99.90
3380;DHT22;1703;51.964;7.642;2023-02-19T16:43:27;9.60;99.90
3380;DHT22;1703;51.964;7.642;2023-02-19T16:45:55;9.70;99.90
3380;DHT22;1703;51.964;7.642;2023-02-19T16:48:23;9.70;99.90
3380;DHT22;1703;51.964;7.642;2023-02-19T16:50:50;9.70;99.90
3380;DHT22;1703;51.964;7.642;2023-02-19T16:53:18;9.70;99.90
3380;DHT22;1703;51.964;7.642;2023-02-19T16:55:48;9.60;99.90
3380;DHT22;1703;51.964;7.642;2023-02-19T16:58:15;9.60;99.90
3380;DHT22;1703;51.964;7.642;2023-02-19T17:00:42;9.60;99.90
3380;DHT22;1703;51.964;7.642;2023-02-19T17:03:11;9.50;99.90
3380;DHT22;1703;51.964;7.642;2023-02-19T17:05:39;9.40;99.90